Time;durP1;ratioP1;P1;durP2;ratioP2;P2;SDS_P1;SDS_P2;PMS_P1;PMS_P2;Temp;Humidity;BMP_temperature;BMP_pressure;BME280_temperature;BME280_humidity;BME280_pressure;Samples;Min_cycle;Max_cycle;Signal;HPM_P1;HPM_P2
2022/01/10 00:00:50;;;;;;;119.85;102.95;;;5.00;98.30;;;;;;5004439;28;20047;-77
2022/01/10 00:03:18;;;;;;;116.18;103.05;;;4.90;98.20;;;;;;5020040;28;20070;-76
2022/01/10 00:05:45;;;;;;;115.88;103.75;;;4.90;98.20;;;;;;4998205;28;20591;-76
2022/01/10 00:08:14;;;;;;;113.65;101.68;;;4.90;98.20;;;;;;4998281;28;20050;-77
2022/01/10 00:10:43;;;;;;;118.10;104.13;;;4.90;98.30;;;;;;4998366;28;20051;-77
2022/01/10 00:13:10;;;;;;;115.60;103.20;;;4.90;98.30;;;;;;5016158;28;20061;-76
2022/01/10 00:15:37;;;;;;;;;;;4.90;98.30;;;;;;4998937;28;20050;-76
2022/01/10 00:18:05;;;;;;;;;;;4.80;98.20;;;;;;4998495;28;19968;-76
2022/01/10 00:20:33;;;;;;;115.93;103.63;;;4.80;98.20;;;;;;5014555;28;19933;-76
2022/01/10 00:23:00;;;;;;;117.47;103.85;;;4.80;98.20;;;;;;5014829;28;20054;-76
2022/01/10 00:25:28;;;;;;;116.65;103.60;;;4.80;98.20;;;;;;4994897;28;20059;-76
2022/01/10 00:27:55;;;;;;;;;;;4.80;98.20;;;;;;4996097;28;20054;-76
2022/01/10 00:30:24;;;;;;;115.22;102.65;;;4.70;98.10;;;;;;4997976;28;20306;-76
2022/01/10 00:32:53;;;;;;;116.72;104.13;;;4.70;98.20;;;;;;5009982;28;20055;-76
2022/01/10 00:35:21;;;;;;;115.40;103.10;;;4.70;98.20;;;;;;4997905;28;20129;-76
2022/01/10 00:37:49;;;;;;;119.40;106.75;;;4.70;98.20;;;;;;4996729;28;20174;-76
2022/01/10 00:40:18;;;;;;;116.32;104.20;;;4.60;98.10;;;;;;5013605;28;20540;-77
2022/01/10 00:42:53;;;;;;;116.47;104.15;;;4.60;98.10;;;;;;4997725;28;20154;-76
2022/01/10 00:45:23;;;;;;;116.25;103.50;;;4.60;98.10;;;;;;5013974;28;20062;-76
2022/01/10 00:47:50;;;;;;;115.22;103.10;;;4.60;98.10;;;;;;5013715;28;20076;-76
2022/01/10 00:50:18;;;;;;;115.13;103.25;;;4.50;98.10;;;;;;4981426;28;20592;-76
2022/01/10 00:52:47;;;;;;;116.97;104.75;;;4.50;98.10;;;;;;4977888;28;20055;-76
2022/01/10 00:55:14;;;;;;;114.32;102.18;;;4.50;98.10;;;;;;4981552;28;20547;-76
2022/01/10 00:57:41;;;;;;;115.47;103.32;;;4.40;98.10;;;;;;4997843;28;20094;-76
2022/01/10 01:00:12;;;;;;;116.03;103.60;;;4.40;98.10;;;;;;4997835;28;20141;-76
2022/01/10 01:02:39;;;;;;;116.72;104.13;;;4.40;98.10;;;;;;4995076;28;20047;-76
2022/01/10 01:05:09;;;;;;;114.82;102.93;;;4.40;98.10;;;;;;4981343;28;20125;-76
2022/01/10 01:07:37;;;;;;;113.65;101.72;;;4.40;98.10;;;;;;4997237;28;20054;-76
2022/01/10 01:10:25;;;;;;;115.03;102.72;;;4.30;98.10;;;;;;4981278;28;20137;-76
2022/01/10 01:12:57;;;;;;;114.70;102.95;;;4.30;98.10;;;;;;4997316;28;20070;-76
2022/01/10 01:15:29;;;;;;;116.45;104.25;;;4.30;98.10;;;;;;4997271;28;20054;-76
2022/01/10 01:18:13;;;;;;;114.68;102.43;;;4.30;98.10;;;;;;4997009;28;20486;-77
2022/01/10 01:23:59;;;;;;;114.05;102.30;;;4.40;98.10;;;;;;4997177;28;20050;-77
2022/01/10 01:26:14;;;;;;;115.20;103.18;;;4.40;98.10;;;;;;4988081;28;20527;-76
2022/01/10 01:28:41;;;;;;;117.38;104.70;;;4.40;98.00;;;;;;4996892;28;20057;-76
2022/01/10 01:31:08;;;;;;;113.97;101.93;;;4.40;97.90;;;;;;5013360;28;20058;-76
2022/01/10 01:33:35;;;;;;;115.90;103.57;;;4.40;97.90;;;;;;4980739;28;20846;-76
2022/01/10 01:36:03;;;;;;;115.90;103.88;;;4.40;97.90;;;;;;4978520;28;20051;-76
2022/01/10 01:38:30;;;;;;;114.28;102.32;;;4.40;97.80;;;;;;4980145;28;20061;-76
2022/01/10 01:41:11;;;;;;;116.35;104.25;;;4.30;97.70;;;;;;4980673;28;20576;-77
2022/01/10 01:43:40;;;;;;;117.28;104.95;;;4.30;97.60;;;;;;4993947;28;20579;-76
2022/01/10 01:46:08;;;;;;;114.57;102.68;;;4.30;97.70;;;;;;4978787;28;20053;-76
2022/01/10 01:48:35;;;;;;;115.45;103.28;;;4.20;97.70;;;;;;5012975;28;20060;-76
2022/01/10 01:51:03;;;;;;;115.22;103.43;;;4.30;97.70;;;;;;4996402;28;20097;-76
2022/01/10 01:53:30;;;;;;;114.47;103.05;;;4.30;97.70;;;;;;4996979;28;20073;-76
2022/01/10 01:55:58;;;;;;;;;;;4.30;97.70;;;;;;4997437;28;20060;-76
2022/01/10 01:58:25;;;;;;;;;;;4.20;97.50;;;;;;4997764;28;19968;-76
2022/01/10 02:00:55;;;;;;;116.25;103.80;;;4.20;97.40;;;;;;5013510;28;19957;-76
2022/01/10 02:03:22;;;;;;;116.50;104.30;;;4.20;97.40;;;;;;4964309;28;20560;-76
2022/01/10 02:05:57;;;;;;;116.90;104.10;;;4.10;97.40;;;;;;4997018;28;20054;-76
2022/01/10 02:08:24;;;;;;;;;;;4.10;97.50;;;;;;4996706;28;20046;-76
2022/01/10 02:10:51;;;;;;;115.70;103.85;;;4.10;97.50;;;;;;4994413;28;20776;-76
2022/01/10 02:13:18;;;;;;;116.75;104.03;;;4.10;97.50;;;;;;4978149;28;20106;-76
2022/01/10 02:15:50;;;;;;;;;;;4.10;97.70;;;;;;4980820;28;20575;-76
2022/01/10 02:18:21;;;;;;;116.60;104.00;;;4.10;97.30;;;;;;5012955;28;19925;-76
2022/01/10 02:20:53;;;;;;;116.80;104.68;;;4.10;97.40;;;;;;4980238;28;20619;-76
2022/01/10 02:23:22;;;;;;;118.95;106.47;;;4.10;97.40;;;;;;4981787;28;20472;-76
2022/01/10 02:25:49;;;;;;;117.30;105.15;;;4.10;97.30;;;;;;4996522;28;20042;-76
2022/01/10 02:28:21;;;;;;;117.70;105.38;;;4.00;97.30;;;;;;4979644;28;20049;-76
2022/01/10 02:30:52;;;;;;;116.65;104.53;;;4.00;97.30;;;;;;4980005;28;20057;-76
2022/01/10 02:33:19;;;;;;;117.40;104.82;;;4.00;97.30;;;;;;4979441;28;20070;-76
2022/01/10 02:35:55;;;;;;;118.13;105.47;;;4.00;97.30;;;;;;4996256;28;20133;-76
2022/01/10 02:38:24;;;;;;;117.32;105.28;;;3.90;97.20;;;;;;4998370;28;20055;-76
2022/01/10 02:40:53;;;;;;;120.30;107.45;;;3.90;97.20;;;;;;4976906;28;20057;-76
2022/01/10 02:43:20;;;;;;;124.35;111.28;;;3.90;97.20;;;;;;4977425;28;20051;-78
2022/01/10 02:45:48;;;;;;;118.65;105.93;;;3.80;97.20;;;;;;4979797;28;20600;-76
2022/01/10 02:48:15;;;;;;;119.10;106.57;;;3.80;97.30;;;;;;4996020;28;20070;-76
2022/01/10 02:50:43;;;;;;;119.63;107.10;;;3.80;97.40;;;;;;4991490;28;20074;-76
2022/01/10 02:53:10;;;;;;;119.78;107.25;;;3.80;97.40;;;;;;4999565;28;20053;-76
2022/01/10 02:55:41;;;;;;;119.80;107.22;;;3.80;97.40;;;;;;4983325;28;20109;-76
2022/01/10 02:58:08;;;;;;;120.10;106.97;;;3.80;97.40;;;;;;4999234;28;20053;-76
2022/01/10 03:00:35;;;;;;;120.93;107.95;;;3.80;97.40;;;;;;5003982;28;20050;-76
2022/01/10 03:03:06;;;;;;;122.60;109.60;;;3.70;97.30;;;;;;4983214;28;20053;-76
2022/01/10 03:05:34;;;;;;;119.35;106.32;;;3.70;97.30;;;;;;4983023;28;20046;-76
2022/01/10 03:08:03;;;;;;;119.35;106.22;;;3.70;97.30;;;;;;4998882;28;20083;-76
2022/01/10 03:10:32;;;;;;;120.20;107.20;;;3.60;97.30;;;;;;4999320;28;20094;-76
2022/01/10 03:13:01;;;;;;;119.25;106.63;;;3.60;97.30;;;;;;4983057;28;20042;-76
2022/01/10 03:15:29;;;;;;;119.35;106.80;;;3.60;97.30;;;;;;4999220;28;20054;-77
2022/01/10 03:17:57;;;;;;;124.03;107.10;;;3.50;97.30;;;;;;5010265;28;20055;-76
2022/01/10 03:20:24;;;;;;;120.88;107.97;;;3.50;97.30;;;;;;4972440;28;20050;-76
2022/01/10 03:22:52;;;;;;;120.20;107.13;;;3.50;97.30;;;;;;4998907;28;20615;-76
2022/01/10 03:25:19;;;;;;;119.70;107.28;;;3.40;97.30;;;;;;4982735;28;20876;-77
2022/01/10 03:27:48;;;;;;;121.25;108.10;;;3.40;97.30;;;;;;4983194;28;20050;-76
2022/01/10 03:30:17;;;;;;;123.18;107.72;;;3.40;97.50;;;;;;4983015;28;20054;-76
2022/01/10 03:32:47;;;;;;;121.45;107.95;;;3.40;97.40;;;;;;4998963;28;20105;-76
2022/01/10 03:35:26;;;;;;;120.20;107.25;;;3.40;97.40;;;;;;5015260;28;20085;-76
2022/01/10 03:37:53;;;;;;;122.03;108.75;;;3.30;97.40;;;;;;4998803;28;20129;-76
2022/01/10 03:40:22;;;;;;;121.75;108.60;;;3.30;97.40;;;;;;4982203;28;20497;-76
2022/01/10 03:42:51;;;;;;;119.35;106.25;;;3.20;97.50;;;;;;4998757;28;20047;-76
2022/01/10 03:45:19;;;;;;;117.78;105.15;;;3.20;97.50;;;;;;4982415;28;20050;-76
2022/01/10 03:47:47;;;;;;;116.57;104.25;;;3.10;97.50;;;;;;4998327;28;20062;-76
2022/01/10 03:50:14;;;;;;;118.13;105.50;;;3.10;97.50;;;;;;4998698;28;20519;-76
2022/01/10 03:52:42;;;;;;;118.47;105.95;;;3.10;97.50;;;;;;4996051;28;20809;-76
2022/01/10 03:55:10;;;;;;;118.93;106.22;;;3.10;97.50;;;;;;4982301;28;20607;-76
2022/01/10 03:57:38;;;;;;;117.95;105.65;;;3.00;97.50;;;;;;4998360;28;20497;-76
2022/01/10 04:00:08;;;;;;;119.47;106.50;;;3.00;97.50;;;;;;4965957;28;20054;-76
2022/01/10 04:02:51;;;;;;;118.32;105.82;;;3.00;97.50;;;;;;5016025;28;20052;-76
2022/01/10 04:05:28;;;;;;;119.05;106.13;;;3.00;97.50;;;;;;4998360;28;20050;-76
2022/01/10 04:07:55;;;;;;;118.13;105.78;;;3.00;97.60;;;;;;4982203;28;20141;-76
2022/01/10 04:10:23;;;;;;;118.68;106.13;;;3.00;97.70;;;;;;4998497;28;20058;-76
2022/01/10 04:12:50;;;;;;;119.75;107.15;;;3.00;97.70;;;;;;4998415;28;20050;-76
2022/01/10 04:15:17;;;;;;;117.97;105.57;;;3.10;97.70;;;;;;4982302;28;20046;-76
2022/01/10 04:17:52;;;;;;;117.60;105.43;;;3.10;97.60;;;;;;4982200;28;20055;-76
2022/01/10 04:20:19;;;;;;;118.63;106.15;;;3.10;97.60;;;;;;4962656;28;20050;-76
2022/01/10 04:22:46;;;;;;;118.38;105.72;;;3.10;97.60;;;;;;4986323;28;20107;-77
2022/01/10 04:25:13;;;;;;;119.55;106.47;;;3.10;97.60;;;;;;4981940;28;20083;-76
2022/01/10 04:27:41;;;;;;;117.90;105.82;;;3.10;97.60;;;;;;4995762;28;20101;-76
2022/01/10 04:30:08;;;;;;;;;;;3.10;97.60;;;;;;4998928;28;20056;-76
2022/01/10 04:32:35;;;;;;;116.90;104.75;;;3.10;97.50;;;;;;5005837;28;19981;-76
2022/01/10 04:35:04;;;;;;;118.68;106.20;;;3.10;97.50;;;;;;4997916;28;20050;-76
2022/01/10 04:37:34;;;;;;;120.20;107.55;;;3.20;97.50;;;;;;4997806;28;20109;-76
2022/01/10 04:40:03;;;;;;;119.55;106.88;;;3.20;97.60;;;;;;4981714;28;20093;-76
2022/01/10 04:42:30;;;;;;;119.43;106.82;;;3.20;97.50;;;;;;4981616;28;20046;-76
2022/01/10 04:44:57;;;;;;;;;;;3.20;97.50;;;;;;4998545;28;20051;-76
2022/01/10 04:47:25;;;;;;;120.28;107.18;;;3.20;97.40;;;;;;4981892;28;19925;-76
2022/01/10 04:50:20;;;;;;;;;;;3.20;97.50;;;;;;5002682;28;20062;-76
2022/01/10 04:52:50;;;;;;;120.18;107.75;;;3.10;97.40;;;;;;4998046;28;19936;-76
2022/01/10 04:55:20;;;;;;;121.95;108.88;;;3.10;97.40;;;;;;4997515;28;20054;-76
2022/01/10 04:57:47;;;;;;;123.55;110.45;;;3.10;97.30;;;;;;4981269;28;20046;-76
2022/01/10 05:00:17;;;;;;;129.75;113.85;;;3.10;97.30;;;;;;4995163;28;20046;-76
2022/01/10 05:02:47;;;;;;;120.45;108.05;;;3.10;97.40;;;;;;4978098;28;20043;-76
2022/01/10 05:05:14;;;;;;;120.43;107.95;;;3.00;97.30;;;;;;4988517;28;20129;-77
2022/01/10 05:07:42;;;;;;;119.50;106.93;;;3.00;97.30;;;;;;5013668;28;20051;-76
2022/01/10 05:10:11;;;;;;;120.57;107.63;;;3.00;97.30;;;;;;4980969;28;20042;-76
2022/01/10 05:12:42;;;;;;;120.45;108.07;;;3.00;97.40;;;;;;4980011;28;20416;-76
2022/01/10 05:15:09;;;;;;;119.28;106.90;;;3.00;97.30;;;;;;4997549;28;20476;-76
2022/01/10 05:17:36;;;;;;;118.32;105.88;;;3.10;97.30;;;;;;4997071;28;20579;-77
2022/01/10 05:20:05;;;;;;;119.55;106.70;;;3.00;97.30;;;;;;4997107;28;20054;-76
2022/01/10 05:22:32;;;;;;;118.63;106.07;;;3.00;97.20;;;;;;4981522;28;20428;-76
2022/01/10 05:24:59;;;;;;;119.30;106.80;;;3.10;97.20;;;;;;4997039;28;20460;-76
2022/01/10 05:27:29;;;;;;;120.38;107.90;;;3.00;97.30;;;;;;4997013;28;20078;-76
2022/01/10 05:29:59;;;;;;;123.05;110.25;;;3.10;97.20;;;;;;4997276;28;20495;-76
2022/01/10 05:32:26;;;;;;;123.03;109.63;;;3.00;97.20;;;;;;4980538;28;20113;-76
2022/01/10 05:35:17;;;;;;;121.63;108.57;;;3.00;97.20;;;;;;4991835;28;20065;-76
2022/01/10 05:37:44;;;;;;;120.80;108.28;;;3.00;97.20;;;;;;4996799;28;20145;-76
2022/01/10 05:40:15;;;;;;;119.78;107.07;;;2.90;97.20;;;;;;4997158;28;20057;-76
2022/01/10 05:42:43;;;;;;;119.85;107.25;;;2.90;97.30;;;;;;4977272;28;20047;-76
2022/01/10 05:45:11;;;;;;;122.70;109.25;;;2.80;97.30;;;;;;4968471;28;20132;-76
2022/01/10 05:47:42;;;;;;;122.25;109.15;;;2.80;97.30;;;;;;4980660;28;20054;-76
2022/01/10 05:50:11;;;;;;;122.32;109.57;;;2.80;97.30;;;;;;4997018;28;20054;-76
2022/01/10 05:53:21;;;;;;;119.40;106.82;;;2.80;97.40;;;;;;4981507;28;20145;-76
2022/01/10 05:55:49;;;;;;;121.35;108.55;;;2.80;97.40;;;;;;4996363;28;20121;-76
2022/01/10 05:58:18;;;;;;;123.60;110.78;;;2.80;97.50;;;;;;4996393;28;20496;-76
2022/01/10 06:00:45;;;;;;;122.28;109.15;;;2.80;97.50;;;;;;4996384;28;20057;-76
2022/01/10 06:03:13;;;;;;;124.10;110.57;;;2.80;97.50;;;;;;5014481;28;20081;-76
2022/01/10 06:05:47;;;;;;;124.93;109.80;;;2.80;97.40;;;;;;4996402;28;20050;-76
2022/01/10 06:08:14;;;;;;;122.88;109.63;;;2.80;97.50;;;;;;4980266;28;20054;-76
2022/01/10 06:10:43;;;;;;;123.63;110.72;;;2.80;97.50;;;;;;4995666;28;20054;-76
2022/01/10 06:13:27;;;;;;;124.03;110.53;;;2.80;97.50;;;;;;4996562;28;20046;-76
2022/01/10 06:15:55;;;;;;;122.65;109.43;;;2.80;97.50;;;;;;4980333;28;20050;-76
2022/01/10 06:18:23;;;;;;;123.95;110.60;;;2.80;97.50;;;;;;4979916;28;20053;-76
2022/01/10 06:20:50;;;;;;;119.78;107.40;;;2.80;97.50;;;;;;5012292;28;20492;-76
2022/01/10 06:23:17;;;;;;;120.38;107.68;;;2.80;97.50;;;;;;4996203;28;20055;-76
2022/01/10 06:25:44;;;;;;;120.18;107.60;;;2.80;97.60;;;;;;5013157;28;20057;-76
2022/01/10 06:28:12;;;;;;;120.78;107.97;;;2.80;97.50;;;;;;4996185;28;20061;-76
2022/01/10 06:30:41;;;;;;;121.95;109.15;;;2.80;97.40;;;;;;4980135;28;20066;-76
2022/01/10 06:33:08;;;;;;;120.82;108.07;;;2.80;97.40;;;;;;4979537;28;20125;-76
2022/01/10 06:35:36;;;;;;;122.47;109.55;;;2.70;97.40;;;;;;4996326;28;20141;-76
2022/01/10 06:38:05;;;;;;;120.22;107.07;;;2.70;97.40;;;;;;5012392;28;20827;-76
2022/01/10 06:40:34;;;;;;;121.57;108.65;;;2.70;97.40;;;;;;4984139;28;20050;-76
2022/01/10 06:43:01;;;;;;;118.75;106.55;;;2.70;97.40;;;;;;4979580;28;20133;-76
2022/01/10 06:45:30;;;;;;;122.07;108.93;;;2.70;97.40;;;;;;4994060;28;20053;-76
2022/01/10 06:47:59;;;;;;;121.85;109.07;;;2.70;97.40;;;;;;4996138;28;20142;-76
2022/01/10 06:50:27;;;;;;;122.07;109.18;;;2.70;97.40;;;;;;4995808;28;20714;-76
2022/01/10 06:52:55;;;;;;;122.22;109.13;;;2.70;97.40;;;;;;4995962;28;20050;-76
2022/01/10 06:55:25;;;;;;;120.90;108.28;;;2.70;97.40;;;;;;4979654;28;20054;-76
2022/01/10 06:57:55;;;;;;;120.72;108.22;;;2.70;97.40;;;;;;4995854;28;20055;-76
2022/01/10 07:00:25;;;;;;;119.55;106.82;;;2.70;97.40;;;;;;4979856;28;20140;-76
2022/01/10 07:02:55;;;;;;;120.45;107.88;;;2.60;97.30;;;;;;4995912;28;20129;-76
2022/01/10 07:05:23;;;;;;;119.55;107.03;;;2.60;97.30;;;;;;4986225;28;20050;-76
2022/01/10 07:07:54;;;;;;;119.05;106.70;;;2.60;97.30;;;;;;4980134;28;20054;-76
2022/01/10 07:10:32;;;;;;;119.90;106.95;;;2.60;97.40;;;;;;4995929;28;20050;-76
2022/01/10 07:12:59;;;;;;;120.88;108.60;;;2.60;97.40;;;;;;4995711;28;20126;-76
2022/01/10 07:15:26;;;;;;;120.65;107.85;;;2.60;97.40;;;;;;4995733;28;20046;-76
2022/01/10 07:17:57;;;;;;;120.05;107.65;;;2.60;97.40;;;;;;4995780;28;20177;-76
2022/01/10 07:20:28;;;;;;;120.78;108.18;;;2.60;97.40;;;;;;4990284;28;20075;-76
2022/01/10 07:22:55;;;;;;;120.03;107.28;;;2.60;97.30;;;;;;4963565;28;20157;-77
2022/01/10 07:25:22;;;;;;;121.07;108.20;;;2.60;97.30;;;;;;4979695;28;20046;-77
2022/01/10 07:27:49;;;;;;;120.73;108.00;;;2.60;97.20;;;;;;5012115;28;20484;-76
2022/01/10 07:30:42;;;;;;;118.63;105.57;;;2.60;97.40;;;;;;4996982;28;20258;-77
2022/01/10 07:33:09;;;;;;;120.18;107.20;;;2.60;97.20;;;;;;4994968;28;20889;-77
2022/01/10 07:35:37;;;;;;;121.93;108.65;;;2.70;97.20;;;;;;5013619;28;20054;-77
2022/01/10 07:38:04;;;;;;;119.90;107.50;;;2.60;97.10;;;;;;4998766;28;20082;-77
2022/01/10 07:40:31;;;;;;;119.85;107.07;;;2.60;97.10;;;;;;5000983;28;20057;-77
2022/01/10 07:42:58;;;;;;;121.65;108.53;;;2.60;97.10;;;;;;4998029;28;20058;-77
2022/01/10 07:45:37;;;;;;;120.72;107.68;;;2.60;97.10;;;;;;4982459;28;20047;-77
2022/01/10 07:48:06;;;;;;;119.28;106.90;;;2.50;97.00;;;;;;4997392;28;20054;-77
2022/01/10 07:50:33;;;;;;;121.88;108.88;;;2.50;97.10;;;;;;4998009;28;20135;-76
2022/01/10 07:53:02;;;;;;;121.55;108.65;;;2.50;97.10;;;;;;4997674;28;20441;-78
2022/01/10 07:55:29;;;;;;;122.55;109.47;;;2.50;97.10;;;;;;4990916;28;20057;-79
2022/01/10 07:57:56;;;;;;;123.25;109.90;;;2.50;97.00;;;;;;5007761;28;20253;-79
2022/01/10 08:00:23;;;;;;;120.07;107.20;;;2.50;97.10;;;;;;4988133;28;20062;-79
2022/01/10 08:02:50;;;;;;;119.68;107.32;;;2.50;97.10;;;;;;5008584;28;20046;-79
2022/01/10 08:05:17;;;;;;;120.57;107.85;;;2.50;97.10;;;;;;4883367;28;20603;-79
2022/01/10 08:07:44;;;;;;;121.50;108.72;;;2.50;97.00;;;;;;5004696;28;20057;-78
2022/01/10 08:10:12;;;;;;;121.60;108.88;;;2.50;97.00;;;;;;5022098;28;20857;-78
2022/01/10 08:12:39;;;;;;;122.88;109.85;;;2.50;97.00;;;;;;4988130;28;20598;-78
2022/01/10 08:15:07;;;;;;;119.68;107.38;;;2.40;97.00;;;;;;4981603;28;20047;-78
2022/01/10 08:17:35;;;;;;;120.80;107.95;;;2.40;97.00;;;;;;4997703;28;20133;-78
2022/01/10 08:20:02;;;;;;;;;;;2.40;97.00;;;;;;4983826;28;20057;-78
2022/01/10 08:22:29;;;;;;;120.28;107.65;;;2.40;96.90;;;;;;4998653;28;19929;-77
2022/01/10 08:24:56;;;;;;;120.63;107.63;;;2.30;96.90;;;;;;4978848;28;20063;-77
2022/01/10 08:27:25;;;;;;;121.57;108.63;;;2.30;96.90;;;;;;4994852;28;20138;-77
2022/01/10 08:29:52;;;;;;;120.72;107.63;;;2.30;96.90;;;;;;4988299;28;20130;-78
2022/01/10 08:32:20;;;;;;;119.80;106.70;;;2.20;96.90;;;;;;4995140;28;20054;-77
2022/01/10 08:34:47;;;;;;;119.28;106.75;;;2.20;97.00;;;;;;4998130;28;20153;-78
2022/01/10 08:37:14;;;;;;;122.18;108.72;;;2.20;97.00;;;;;;5007971;28;20112;-78
2022/01/10 08:39:41;;;;;;;121.25;108.38;;;2.20;97.00;;;;;;5027638;28;20084;-78
2022/01/10 08:42:08;;;;;;;119.30;106.88;;;2.20;97.00;;;;;;5000451;28;20248;-79
2022/01/10 08:44:37;;;;;;;118.60;106.40;;;2.20;97.10;;;;;;4997998;28;20043;-80
2022/01/10 08:47:04;;;;;;;120.57;107.93;;;2.20;97.00;;;;;;4997276;28;20061;-79
2022/01/10 08:49:31;;;;;;;121.35;108.20;;;2.20;97.10;;;;;;5001791;28;20121;-78
2022/01/10 08:51:58;;;;;;;120.43;107.45;;;2.20;97.10;;;;;;4994635;28;20047;-78
2022/01/10 08:54:25;;;;;;;120.07;107.32;;;2.20;97.10;;;;;;5014150;28;20058;-79
2022/01/10 08:56:53;;;;;;;119.55;106.95;;;2.20;97.10;;;;;;5015359;28;20189;-80
2022/01/10 08:59:21;;;;;;;120.05;107.53;;;2.20;97.20;;;;;;4963476;28;20081;-78
2022/01/10 09:01:51;;;;;;;119.68;107.00;;;2.20;97.20;;;;;;5013810;28;20074;-78
2022/01/10 09:08:18;;;;;;;119.90;107.22;;;2.30;97.20;;;;;;5007746;28;20058;-79
2022/01/10 09:10:45;;;;;;;121.20;108.20;;;2.30;97.30;;;;;;4998953;28;20082;-79
2022/01/10 09:13:12;;;;;;;119.75;107.28;;;2.30;97.30;;;;;;4997223;28;20046;-79
2022/01/10 09:15:39;;;;;;;118.50;106.00;;;2.30;97.30;;;;;;5026041;28;20835;-79
2022/01/10 09:18:08;;;;;;;119.55;106.85;;;2.40;97.40;;;;;;5000775;28;20133;-79
2022/01/10 09:20:35;;;;;;;119.65;106.82;;;2.40;97.40;;;;;;4997350;28;20054;-80
2022/01/10 09:23:02;;;;;;;120.65;108.07;;;2.40;97.40;;;;;;4997047;28;20049;-79
2022/01/10 09:25:29;;;;;;;119.38;106.95;;;2.40;97.40;;;;;;4994006;28;20130;-79
2022/01/10 09:27:56;;;;;;;120.07;107.55;;;2.40;97.40;;;;;;4973332;28;20061;-79
2022/01/10 09:30:23;;;;;;;121.20;108.55;;;2.50;97.50;;;;;;4982336;28;20085;-77
2022/01/10 09:32:52;;;;;;;120.05;107.28;;;2.50;97.50;;;;;;5002754;28;20046;-77
2022/01/10 09:35:23;;;;;;;121.63;109.18;;;2.50;97.60;;;;;;5018303;28;20052;-77
2022/01/10 09:37:50;;;;;;;121.05;108.65;;;2.50;97.60;;;;;;5022957;28;20046;-77
2022/01/10 09:40:18;;;;;;;120.97;108.72;;;2.60;97.70;;;;;;5005812;28;20058;-77
2022/01/10 09:42:46;;;;;;;;;;;2.50;97.70;;;;;;5001748;28;20053;-77
2022/01/10 09:45:13;;;;;;;120.20;107.32;;;2.60;97.80;;;;;;5014228;28;19925;-77
2022/01/10 09:47:40;;;;;;;120.18;107.60;;;2.60;97.80;;;;;;4995433;28;20054;-77
2022/01/10 09:50:09;;;;;;;122.65;109.75;;;2.60;97.80;;;;;;4995180;28;20154;-77
2022/01/10 09:52:40;;;;;;;122.47;109.57;;;2.70;97.90;;;;;;4996198;28;20050;-78
2022/01/10 09:55:08;;;;;;;122.20;109.82;;;2.70;97.90;;;;;;4995533;28;20723;-78
2022/01/10 09:57:35;;;;;;;;;;;2.80;98.00;;;;;;4995656;28;20501;-78
2022/01/10 10:00:02;;;;;;;121.63;109.32;;;2.80;98.00;;;;;;5026605;28;20390;-77
2022/01/10 10:02:31;;;;;;;121.50;109.15;;;2.80;98.00;;;;;;5012887;28;20522;-77
2022/01/10 10:04:58;;;;;;;123.70;110.38;;;2.90;98.10;;;;;;4995632;28;20054;-77
2022/01/10 10:07:25;;;;;;;123.40;110.90;;;2.90;98.10;;;;;;4995518;28;20751;-78
2022/01/10 10:09:57;;;;;;;124.55;111.68;;;3.00;98.20;;;;;;4993396;28;20062;-78
2022/01/10 10:12:29;;;;;;;123.47;110.60;;;3.00;98.30;;;;;;4986698;28;20057;-79
2022/01/10 10:14:57;;;;;;;124.50;111.63;;;3.00;98.30;;;;;;5013442;28;20490;-77
2022/01/10 10:17:23;;;;;;;127.47;114.45;;;3.00;98.40;;;;;;4994131;28;20081;-76
2022/01/10 10:19:51;;;;;;;127.35;113.97;;;3.10;98.40;;;;;;4995407;28;20042;-78
2022/01/10 10:22:19;;;;;;;126.85;113.68;;;3.10;98.50;;;;;;5013436;28;20140;-79
2022/01/10 10:24:48;;;;;;;128.38;115.13;;;3.20;98.50;;;;;;4995334;28;20791;-76
2022/01/10 10:27:20;;;;;;;127.80;114.55;;;3.20;98.60;;;;;;5011172;28;20085;-80
2022/01/10 10:29:48;;;;;;;131.13;117.05;;;3.30;98.60;;;;;;5010512;28;20058;-80
2022/01/10 10:32:19;;;;;;;130.23;116.90;;;3.30;98.60;;;;;;4976032;28;20082;-80
2022/01/10 10:34:47;;;;;;;130.27;116.63;;;3.40;98.70;;;;;;4995957;28;20113;-80
2022/01/10 10:37:16;;;;;;;129.93;116.30;;;3.50;98.80;;;;;;4995361;28;20042;-79
2022/01/10 10:39:44;;;;;;;130.05;116.45;;;3.50;98.80;;;;;;5012457;28;20061;-78
2022/01/10 10:42:13;;;;;;;131.77;118.30;;;3.50;98.80;;;;;;4995805;28;20113;-79
2022/01/10 10:44:43;;;;;;;130.00;116.70;;;3.60;98.80;;;;;;5009960;28;20057;-79
2022/01/10 10:47:12;;;;;;;132.77;118.88;;;3.70;98.90;;;;;;4976364;28;20047;-80
2022/01/10 10:49:44;;;;;;;129.73;116.45;;;3.70;98.90;;;;;;5013138;28;20094;-80
2022/01/10 10:52:12;;;;;;;132.40;118.25;;;3.80;98.90;;;;;;4993383;28;20088;-79
2022/01/10 10:54:40;;;;;;;131.18;117.45;;;3.80;99.00;;;;;;5008691;28;20089;-81
2022/01/10 10:57:11;;;;;;;134.52;121.13;;;3.90;99.00;;;;;;4995022;28;20051;-77
2022/01/10 10:59:43;;;;;;;133.13;119.35;;;4.00;99.10;;;;;;5012320;28;20186;-79
2022/01/10 11:02:12;;;;;;;131.75;117.75;;;4.00;99.20;;;;;;5005088;28;20148;-79
2022/01/10 11:04:42;;;;;;;131.27;117.78;;;4.20;99.30;;;;;;5017739;28;20050;-80
2022/01/10 11:07:11;;;;;;;131.93;118.03;;;4.20;99.30;;;;;;4994635;28;20050;-79
2022/01/10 11:09:38;;;;;;;130.98;117.47;;;4.30;99.30;;;;;;4996693;28;20062;-82
2022/01/10 11:12:05;;;;;;;132.35;118.28;;;4.40;99.30;;;;;;4978778;28;20094;-79
2022/01/10 11:14:32;;;;;;;;;;;4.40;99.30;;;;;;4996201;28;20084;-78
2022/01/10 11:17:00;;;;;;;129.90;115.70;;;4.50;99.40;;;;;;5012256;28;19932;-79
2022/01/10 11:19:28;;;;;;;130.43;116.78;;;4.60;99.30;;;;;;4982154;28;20050;-79
2022/01/10 11:22:04;;;;;;;130.18;116.70;;;4.70;99.30;;;;;;4997683;28;20125;-80
2022/01/10 11:24:47;;;;;;;129.77;116.32;;;4.80;99.40;;;;;;4990159;28;20070;-80
2022/01/10 11:27:32;;;;;;;130.10;116.63;;;4.90;99.60;;;;;;4997710;28;20050;-79
2022/01/10 11:30:00;;;;;;;131.63;118.30;;;4.90;99.30;;;;;;4998559;28;20085;-77
2022/01/10 11:32:56;;;;;;;131.82;118.40;;;5.00;99.30;;;;;;4996805;28;20046;-77
2022/01/10 11:35:27;;;;;;;130.05;116.80;;;5.10;99.40;;;;;;4997176;28;20133;-77
2022/01/10 11:37:55;;;;;;;129.77;116.82;;;5.10;99.30;;;;;;5010988;28;20112;-77
2022/01/10 11:40:22;;;;;;;130.70;117.40;;;5.20;99.40;;;;;;4997769;28;20046;-80
2022/01/10 11:42:55;;;;;;;132.07;118.85;;;5.30;99.40;;;;;;4979991;28;20042;-79
2022/01/10 11:45:22;;;;;;;131.90;118.72;;;5.40;99.40;;;;;;5017992;28;20066;-78
2022/01/10 11:48:17;;;;;;;133.50;119.93;;;5.50;99.40;;;;;;5024934;28;20046;-79
2022/01/10 11:50:46;;;;;;;131.13;117.93;;;5.60;99.30;;;;;;4979830;28;20054;-80
2022/01/10 11:53:16;;;;;;;131.13;117.85;;;5.60;99.30;;;;;;4915200;28;20045;-80
2022/01/10 11:55:51;;;;;;;131.98;118.25;;;5.70;99.20;;;;;;4992918;28;20054;-79
2022/01/10 11:58:20;;;;;;;132.60;118.97;;;5.80;99.20;;;;;;5002361;28;20080;-79
2022/01/10 12:00:47;;;;;;;133.23;119.72;;;5.80;99.10;;;;;;5000880;28;20447;-79
2022/01/10 12:03:15;;;;;;;130.38;117.18;;;5.90;99.10;;;;;;5008994;28;20043;-79
2022/01/10 12:05:41;;;;;;;;;;;5.90;99.10;;;;;;4995447;28;20129;-79
2022/01/10 12:08:10;;;;;;;131.13;117.50;;;6.00;99.10;;;;;;4981439;28;19925;-80
2022/01/10 12:10:38;;;;;;;130.57;117.35;;;6.10;99.10;;;;;;4981059;28;20105;-80
2022/01/10 12:13:09;;;;;;;133.00;119.07;;;6.20;99.10;;;;;;4993888;28;20042;-79
2022/01/10 12:15:37;;;;;;;133.30;119.93;;;6.30;99.10;;;;;;4976355;28;20058;-79
2022/01/10 12:18:05;;;;;;;131.63;118.45;;;6.40;99.20;;;;;;4985770;28;20074;-78
2022/01/10 12:20:33;;;;;;;131.00;117.85;;;6.40;99.10;;;;;;5002501;28;20085;-78
2022/01/10 12:23:01;;;;;;;133.10;119.80;;;6.60;99.20;;;;;;5034651;28;20046;-79
2022/01/10 12:25:29;;;;;;;;;;;6.60;99.10;;;;;;5001054;28;20096;-79
2022/01/10 12:28:00;;;;;;;130.80;117.32;;;6.70;99.10;;;;;;5017315;28;20019;-79
2022/01/10 12:30:28;;;;;;;130.02;116.72;;;6.80;99.00;;;;;;5014107;28;20051;-80
2022/01/10 12:32:55;;;;;;;131.30;118.18;;;6.80;98.90;;;;;;4978803;28;20085;-79
2022/01/10 12:35:22;;;;;;;130.27;117.50;;;6.90;99.00;;;;;;4977630;28;20046;-79
2022/01/10 12:37:52;;;;;;;129.27;116.53;;;7.00;98.90;;;;;;4996643;28;20046;-78
2022/01/10 12:40:19;;;;;;;130.02;116.85;;;7.00;98.90;;;;;;5002661;28;20133;-79